createdAt,value
2019-03-25T00:00:38.167Z,64.00
2019-03-25T00:03:01.254Z,64.40
2019-03-25T00:05:22.459Z,64.20
2019-03-25T00:07:43.650Z,64.30
2019-03-25T00:10:05.453Z,64.60
2019-03-25T00:12:26.667Z,64.40
2019-03-25T00:14:47.889Z,64.10
2019-03-25T00:17:09.141Z,64.10
2019-03-25T00:19:30.403Z,64.20
2019-03-25T00:21:51.582Z,64.10
2019-03-25T00:24:12.798Z,63.70
2019-03-25T00:26:33.980Z,64.20
2019-03-25T00:28:55.194Z,64.10
2019-03-25T00:31:16.379Z,64.10
2019-03-25T00:33:37.578Z,64.50
2019-03-25T00:35:59.088Z,64.40
2019-03-25T00:38:20.292Z,64.50
2019-03-25T00:40:41.521Z,64.80
2019-03-25T00:43:02.724Z,64.90
2019-03-25T00:45:24.053Z,65.10
2019-03-25T00:47:45.249Z,65.10
2019-03-25T00:50:06.870Z,65.30
2019-03-25T00:52:28.044Z,65.50
2019-03-25T00:54:50.478Z,65.70
2019-03-25T00:57:11.740Z,66.00
2019-03-25T00:59:32.949Z,66.20
2019-03-25T01:01:54.139Z,66.40
2019-03-25T01:04:15.372Z,66.30
2019-03-25T01:06:36.561Z,68.00
2019-03-25T01:08:57.757Z,69.20
2019-03-25T01:11:18.968Z,69.30
2019-03-25T01:13:40.159Z,69.30
2019-03-25T01:16:01.367Z,70.10
2019-03-25T01:18:22.559Z,68.40
2019-03-25T01:20:43.743Z,68.10
2019-03-25T01:23:04.938Z,67.60
2019-03-25T01:25:26.137Z,67.80
2019-03-25T01:27:47.341Z,67.60
2019-03-25T01:30:09.841Z,67.70
2019-03-25T01:32:31.025Z,67.70
2019-03-25T01:34:52.537Z,67.50
2019-03-25T01:37:13.749Z,66.30
2019-03-25T01:39:34.959Z,66.30
2019-03-25T01:41:57.176Z,66.20
2019-03-25T01:44:18.403Z,65.40
2019-03-25T01:46:39.596Z,64.60
2019-03-25T01:49:00.791Z,63.60
2019-03-25T01:51:21.987Z,62.10
2019-03-25T01:53:43.176Z,62.10
2019-03-25T01:56:04.792Z,60.90
2019-03-25T01:58:26.073Z,60.90
2019-03-25T02:00:47.308Z,61.00
2019-03-25T02:03:08.524Z,61.50
2019-03-25T02:05:29.816Z,61.40
2019-03-25T02:07:51.000Z,61.50
2019-03-25T02:10:13.091Z,61.20
2019-03-25T02:12:34.287Z,60.70
2019-03-25T02:14:55.495Z,61.50
2019-03-25T02:17:16.707Z,61.20
2019-03-25T02:19:37.909Z,60.80
2019-03-25T02:21:59.137Z,60.80
2019-03-25T02:24:20.443Z,60.70
2019-03-25T02:26:41.842Z,60.50
2019-03-25T02:29:03.034Z,60.50
2019-03-25T02:31:24.241Z,60.90
2019-03-25T02:33:45.421Z,60.30
2019-03-25T02:36:06.715Z,61.00
2019-03-25T02:38:28.183Z,61.20
2019-03-25T02:40:49.411Z,61.50
2019-03-25T02:43:10.606Z,62.00
2019-03-25T02:45:31.897Z,61.80
2019-03-25T02:47:53.110Z,62.80
2019-03-25T02:50:14.309Z,62.50
2019-03-25T02:52:35.498Z,63.70
2019-03-25T02:54:56.727Z,63.50
2019-03-25T02:57:17.973Z,64.40
2019-03-25T02:59:39.141Z,65.00
2019-03-25T03:02:00.462Z,65.30
2019-03-25T03:04:21.662Z,65.00
2019-03-25T03:06:42.856Z,64.30
2019-03-25T03:09:07.849Z,64.20
2019-03-25T03:11:29.028Z,65.50
2019-03-25T03:13:50.228Z,65.40
2019-03-25T03:16:11.430Z,65.70
2019-03-25T03:18:32.622Z,66.90
2019-03-25T03:20:53.833Z,66.80
2019-03-25T03:23:15.013Z,66.10
2019-03-25T03:25:36.192Z,65.90
2019-03-25T03:27:57.394Z,66.40
2019-03-25T03:30:18.601Z,66.20
2019-03-25T03:32:39.837Z,66.20
2019-03-25T03:35:01.165Z,66.20
2019-03-25T03:37:23.490Z,66.00
2019-03-25T03:39:44.763Z,66.00
2019-03-25T03:42:06.458Z,65.70
2019-03-25T03:44:27.712Z,65.90
2019-03-25T03:46:48.916Z,66.10
2019-03-25T03:49:10.106Z,66.20
2019-03-25T03:51:31.418Z,66.60
2019-03-25T03:53:52.619Z,66.50
2019-03-25T03:56:14.597Z,66.80
2019-03-25T03:58:35.988Z,67.50
2019-03-25T04:00:57.187Z,67.70
2019-03-25T04:03:18.393Z,67.90
2019-03-25T04:05:39.568Z,68.70
2019-03-25T04:08:00.881Z,69.10
2019-03-25T04:10:22.061Z,69.50
2019-03-25T04:12:43.290Z,70.30
2019-03-25T04:15:05.605Z,71.20
2019-03-25T04:17:26.804Z,71.70
2019-03-25T04:19:47.984Z,70.50
2019-03-25T04:22:09.196Z,71.00
2019-03-25T04:24:30.385Z,71.30
2019-03-25T04:26:51.571Z,71.20
2019-03-25T04:29:12.757Z,71.20
2019-03-25T04:31:34.037Z,71.00
2019-03-25T04:33:55.228Z,71.10
2019-03-25T04:36:16.448Z,72.20
2019-03-25T04:38:37.659Z,73.50
2019-03-25T04:40:58.928Z,73.30
2019-03-25T04:43:20.126Z,73.60
2019-03-25T04:45:41.324Z,73.70
2019-03-25T04:48:02.531Z,73.70
2019-03-25T04:50:23.748Z,74.00
2019-03-25T04:52:44.960Z,74.40
2019-03-25T04:55:06.479Z,74.80
2019-03-25T04:57:28.556Z,75.10
2019-03-25T04:59:49.740Z,75.40
2019-03-25T05:02:10.948Z,75.90
2019-03-25T05:04:32.309Z,76.00
2019-03-25T05:06:53.650Z,76.30
2019-03-25T05:09:14.870Z,76.40
2019-03-25T05:11:36.419Z,76.60
2019-03-25T05:13:57.640Z,76.80
2019-03-25T05:16:18.861Z,77.10
2019-03-25T05:18:40.156Z,77.30
2019-03-25T05:21:01.404Z,77.70
2019-03-25T05:23:22.687Z,77.90
2019-03-25T05:25:43.979Z,78.10
2019-03-25T05:28:05.233Z,78.20
2019-03-25T05:30:26.571Z,78.50
2019-03-25T05:32:47.842Z,78.70
2019-03-25T05:35:09.129Z,79.00
2019-03-25T05:37:30.375Z,79.50
2019-03-25T05:39:51.571Z,79.50
2019-03-25T05:42:12.775Z,79.70
2019-03-25T05:44:34.021Z,79.90
2019-03-25T05:46:56.308Z,80.30
2019-03-25T05:49:17.521Z,80.00
2019-03-25T05:51:38.716Z,79.80
2019-03-25T05:53:59.915Z,79.80
2019-03-25T05:56:21.090Z,79.50
2019-03-25T05:58:42.337Z,78.90
2019-03-25T06:01:03.709Z,78.20
2019-03-25T06:03:24.905Z,77.60
2019-03-25T06:05:46.114Z,77.30
2019-03-25T06:08:07.348Z,76.70
2019-03-25T06:10:28.731Z,76.20
2019-03-25T06:12:50.003Z,76.50
2019-03-25T06:15:11.838Z,76.40
2019-03-25T06:17:33.057Z,76.30
2019-03-25T06:19:54.276Z,75.80
2019-03-25T06:22:15.525Z,75.80
2019-03-25T06:24:36.854Z,75.50
2019-03-25T06:26:58.046Z,75.20
2019-03-25T06:29:19.273Z,75.40
2019-03-25T06:31:41.102Z,75.60
2019-03-25T06:34:02.650Z,75.10
2019-03-25T06:36:23.922Z,75.20
2019-03-25T06:38:45.291Z,75.20
2019-03-25T06:41:06.717Z,74.50
2019-03-25T06:43:27.950Z,74.30
2019-03-25T06:45:49.147Z,74.20
2019-03-25T06:48:10.448Z,74.20
2019-03-25T06:50:31.760Z,74.20
2019-03-25T06:52:52.992Z,74.70
2019-03-25T06:55:14.268Z,72.90
2019-03-25T06:57:35.514Z,72.40
2019-03-25T06:59:56.732Z,71.40
2019-03-25T07:02:18.332Z,70.90
2019-03-25T07:04:39.567Z,70.30
2019-03-25T07:07:00.793Z,69.40
2019-03-25T07:09:22.013Z,69.00
2019-03-25T07:11:45.077Z,68.20
2019-03-25T07:14:06.277Z,68.40
2019-03-25T07:16:27.518Z,68.10
2019-03-25T07:18:48.694Z,67.30
2019-03-25T07:21:09.955Z,68.60
2019-03-25T07:23:31.138Z,67.60
2019-03-25T07:25:52.350Z,67.10
2019-03-25T07:28:13.808Z,66.70
2019-03-25T07:30:35.001Z,66.90
2019-03-25T07:32:56.184Z,66.40
2019-03-25T07:35:17.386Z,66.80
2019-03-25T07:37:38.574Z,66.00
2019-03-25T07:39:59.802Z,65.80
2019-03-25T07:42:21.060Z,65.30
2019-03-25T07:44:42.382Z,64.10
2019-03-25T07:47:03.572Z,64.40
2019-03-25T07:49:24.793Z,63.50
2019-03-25T07:51:46.009Z,62.00
2019-03-25T07:54:07.179Z,62.90
2019-03-25T07:56:28.479Z,63.30
2019-03-25T07:58:50.007Z,62.10
2019-03-25T08:01:11.311Z,62.80
2019-03-25T08:03:32.545Z,62.80
2019-03-25T08:05:53.814Z,61.70
2019-03-25T08:08:15.000Z,61.30
2019-03-25T08:10:36.332Z,60.70
2019-03-25T08:12:57.869Z,60.80
2019-03-25T08:15:19.190Z,60.90
2019-03-25T08:17:47.840Z,60.50
2019-03-25T08:20:09.265Z,60.00
2019-03-25T08:22:30.647Z,59.90
2019-03-25T08:24:51.843Z,60.70
2019-03-25T08:27:13.052Z,59.10
2019-03-25T08:29:34.344Z,59.80
2019-03-25T08:31:55.843Z,58.70
2019-03-25T08:34:17.038Z,58.60
2019-03-25T08:36:38.289Z,58.40
2019-03-25T08:38:59.501Z,58.70
2019-03-25T08:41:20.734Z,57.70
2019-03-25T08:43:41.941Z,58.00
2019-03-25T08:46:03.221Z,57.60
2019-03-25T08:48:24.469Z,57.10
2019-03-25T08:50:45.820Z,55.90
2019-03-25T08:53:07.116Z,56.00
2019-03-25T08:55:28.345Z,55.40
2019-03-25T08:57:49.536Z,54.50
2019-03-25T09:00:11.660Z,54.10
2019-03-25T09:02:32.851Z,54.10
2019-03-25T09:04:54.087Z,55.20
2019-03-25T09:07:15.321Z,54.80
2019-03-25T09:09:36.530Z,54.70
2019-03-25T09:11:58.822Z,54.70
2019-03-25T09:14:20.111Z,55.40
2019-03-25T09:16:41.430Z,55.80
2019-03-25T09:19:02.808Z,55.40
2019-03-25T09:21:24.015Z,55.00
2019-03-25T09:23:45.207Z,55.10
2019-03-25T09:26:06.512Z,55.50
2019-03-25T09:28:27.716Z,55.60
2019-03-25T09:30:55.507Z,55.30
2019-03-25T09:33:16.694Z,55.10
2019-03-25T09:35:37.939Z,55.60
2019-03-25T09:37:59.157Z,54.90
2019-03-25T09:40:20.378Z,55.50
2019-03-25T09:42:41.625Z,55.40
2019-03-25T09:45:06.043Z,55.40
2019-03-25T09:47:27.238Z,53.60
2019-03-25T09:49:48.466Z,54.20
2019-03-25T09:52:09.676Z,54.00
2019-03-25T09:54:30.879Z,53.80
2019-03-25T09:56:52.220Z,53.70
2019-03-25T09:59:13.499Z,54.00
2019-03-25T10:01:34.716Z,52.00
2019-03-25T10:03:55.947Z,52.10
2019-03-25T10:06:17.172Z,51.90
2019-03-25T10:08:38.356Z,51.00
2019-03-25T10:10:59.550Z,51.20
2019-03-25T10:13:20.856Z,50.80
2019-03-25T10:15:42.109Z,49.20
2019-03-25T10:18:03.911Z,50.60
2019-03-25T10:20:25.110Z,50.20
2019-03-25T10:22:46.349Z,49.50
2019-03-25T10:25:08.859Z,49.30
2019-03-25T10:27:30.367Z,47.90
2019-03-25T10:29:51.567Z,48.60
2019-03-25T10:32:12.772Z,49.80
2019-03-25T10:34:33.983Z,49.70
2019-03-25T10:36:58.872Z,49.50
2019-03-25T10:39:20.088Z,48.80
2019-03-25T10:41:41.378Z,49.30
2019-03-25T10:44:02.643Z,49.00
2019-03-25T10:46:23.909Z,48.80
2019-03-25T10:48:45.232Z,48.20
2019-03-25T10:51:06.523Z,47.80
2019-03-25T10:53:27.834Z,48.70
2019-03-25T10:55:49.009Z,48.10
2019-03-25T10:58:10.261Z,48.40
2019-03-25T11:00:31.574Z,47.30
2019-03-25T11:02:52.962Z,46.90
2019-03-25T11:05:14.872Z,46.90
2019-03-25T11:07:36.227Z,45.30
2019-03-25T11:09:57.775Z,43.50
2019-03-25T11:12:18.980Z,44.20
2019-03-25T11:14:40.187Z,44.50
2019-03-25T11:17:02.627Z,44.50
2019-03-25T11:19:25.025Z,44.90
2019-03-25T11:21:46.243Z,45.10
2019-03-25T11:24:07.479Z,45.00
2019-03-25T11:26:28.682Z,42.80
2019-03-25T11:28:49.890Z,42.40
2019-03-25T11:31:11.077Z,43.10
2019-03-25T11:33:32.271Z,43.00
2019-03-25T11:35:53.475Z,42.20
2019-03-25T11:38:14.691Z,40.90
2019-03-25T11:40:35.882Z,39.90
2019-03-25T11:42:57.112Z,39.20
2019-03-25T11:45:18.851Z,37.70
2019-03-25T11:47:40.077Z,38.10
2019-03-25T11:50:05.292Z,37.50
2019-03-25T11:52:26.488Z,37.80
2019-03-25T11:54:47.725Z,38.10
2019-03-25T11:57:08.943Z,38.50
2019-03-25T11:59:30.206Z,39.40
2019-03-25T12:01:51.394Z,39.90
2019-03-25T12:04:12.647Z,40.70
2019-03-25T12:06:33.839Z,42.00
2019-03-25T12:08:55.047Z,43.40
2019-03-25T12:11:16.234Z,43.50
2019-03-25T12:13:37.431Z,44.20
2019-03-25T12:15:58.633Z,44.80
2019-03-25T12:18:20.117Z,43.80
2019-03-25T12:20:41.311Z,44.00
2019-03-25T12:23:02.627Z,44.20
2019-03-25T12:25:23.832Z,43.50
2019-03-25T12:27:46.025Z,43.00
2019-03-25T12:30:08.833Z,41.00
2019-03-25T12:32:30.023Z,39.60
2019-03-25T12:34:51.239Z,39.70
2019-03-25T12:37:12.415Z,37.20
2019-03-25T12:39:33.635Z,38.10
2019-03-25T12:41:54.820Z,36.70
2019-03-25T12:44:16.024Z,36.80
2019-03-25T12:46:37.210Z,37.00
2019-03-25T12:48:58.428Z,37.50
2019-03-25T12:51:19.777Z,38.00
2019-03-25T12:53:41.047Z,37.90
2019-03-25T12:56:02.436Z,38.00
2019-03-25T12:58:23.652Z,37.90
2019-03-25T13:00:45.121Z,38.40
2019-03-25T13:03:06.529Z,38.60
2019-03-25T13:05:27.714Z,38.10
2019-03-25T13:07:49.021Z,38.70
2019-03-25T13:10:10.859Z,38.60
2019-03-25T13:12:32.066Z,38.00
2019-03-25T13:14:53.272Z,38.20
2019-03-25T13:17:14.484Z,36.60
2019-03-25T13:19:35.696Z,37.50
2019-03-25T13:21:56.871Z,37.40
2019-03-25T13:24:18.064Z,34.90
2019-03-25T13:26:39.275Z,35.70
2019-03-25T13:29:02.634Z,35.50
2019-03-25T13:31:24.284Z,35.80
2019-03-25T13:33:45.559Z,36.50
2019-03-25T13:36:06.912Z,36.90
2019-03-25T13:38:29.180Z,38.50
2019-03-25T13:40:50.379Z,49.50
2019-03-25T13:43:14.628Z,56.30
2019-03-25T13:45:35.843Z,58.70
2019-03-25T13:47:57.019Z,62.40
2019-03-25T13:50:20.148Z,62.30
2019-03-25T13:52:41.475Z,63.70
2019-03-25T13:55:04.383Z,59.90
2019-03-25T13:57:25.584Z,61.10
2019-03-25T13:59:46.770Z,59.60
2019-03-25T14:02:08.280Z,56.90
2019-03-25T14:04:29.507Z,58.00
2019-03-25T14:06:50.700Z,56.70
2019-03-25T14:09:11.921Z,53.60
2019-03-25T14:11:33.873Z,54.50
2019-03-25T14:13:55.121Z,56.10
2019-03-25T14:16:16.432Z,56.70
2019-03-25T14:18:38.745Z,58.30
2019-03-25T14:20:59.987Z,57.50
2019-03-25T14:23:21.255Z,57.40
2019-03-25T14:25:42.564Z,54.30
2019-03-25T14:28:03.929Z,51.40
2019-03-25T14:30:25.218Z,51.00
2019-03-25T14:32:46.603Z,49.40
2019-03-25T14:35:08.245Z,50.10
2019-03-25T14:37:29.489Z,50.30
2019-03-25T14:39:50.787Z,48.80
2019-03-25T14:42:12.146Z,47.90
2019-03-25T14:44:33.387Z,47.80
2019-03-25T14:46:54.595Z,46.10
2019-03-25T14:49:16.057Z,47.10
2019-03-25T14:51:37.372Z,44.70
2019-03-25T14:53:58.549Z,44.90
2019-03-25T14:56:19.765Z,45.80
2019-03-25T14:58:40.987Z,45.20
2019-03-25T15:01:02.306Z,44.40
2019-03-25T15:03:23.500Z,44.00
2019-03-25T15:05:44.710Z,43.80
2019-03-25T15:08:05.903Z,42.70
2019-03-25T15:10:27.104Z,45.80
2019-03-25T15:12:48.302Z,48.00
2019-03-25T15:15:11.684Z,50.60
2019-03-25T15:17:33.008Z,53.50
2019-03-25T15:19:54.180Z,54.90
2019-03-25T15:22:15.395Z,56.10
2019-03-25T15:24:36.571Z,57.40
2019-03-25T15:26:59.940Z,58.20
2019-03-25T15:29:20.984Z,58.40
2019-03-25T15:31:42.173Z,58.10
2019-03-25T15:34:03.488Z,58.20
2019-03-25T15:36:24.751Z,58.70
2019-03-25T15:38:45.959Z,57.90
2019-03-25T15:41:07.157Z,58.20
2019-03-25T15:43:28.389Z,57.20
2019-03-25T15:45:51.953Z,57.50
2019-03-25T15:48:13.171Z,57.00
2019-03-25T15:50:34.367Z,57.00
2019-03-25T15:52:55.676Z,55.50
2019-03-25T15:55:16.857Z,55.70
2019-03-25T15:57:39.717Z,55.30
2019-03-25T16:00:01.290Z,54.80
2019-03-25T16:02:22.881Z,54.70
2019-03-25T16:04:44.069Z,54.20
2019-03-25T16:07:05.552Z,54.30
2019-03-25T16:09:26.752Z,54.20
2019-03-25T16:11:47.959Z,54.80
2019-03-25T16:14:09.151Z,55.00
2019-03-25T16:16:30.433Z,55.20
2019-03-25T16:18:51.644Z,55.30
2019-03-25T16:21:12.876Z,54.50
2019-03-25T16:23:35.425Z,55.10
2019-03-25T16:25:56.616Z,55.60
2019-03-25T16:28:17.829Z,56.00
2019-03-25T16:30:39.058Z,56.40
2019-03-25T16:33:00.324Z,56.60
2019-03-25T16:35:21.543Z,56.40
2019-03-25T16:37:42.741Z,57.20
2019-03-25T16:40:05.734Z,56.80
2019-03-25T16:42:26.924Z,56.70
2019-03-25T16:44:48.125Z,56.40
2019-03-25T16:47:10.080Z,56.70
2019-03-25T16:49:31.610Z,56.90
2019-03-25T16:51:52.841Z,57.40
2019-03-25T16:54:14.274Z,57.20
2019-03-25T16:56:35.548Z,57.80
2019-03-25T16:58:56.912Z,56.90
2019-03-25T17:01:19.087Z,57.60
2019-03-25T17:03:40.392Z,57.80
2019-03-25T17:06:01.585Z,58.40
2019-03-25T17:08:23.010Z,58.70
2019-03-25T17:10:44.327Z,58.50
2019-03-25T17:13:05.538Z,58.60
2019-03-25T17:15:26.734Z,59.00
2019-03-25T17:17:47.928Z,59.40
2019-03-25T17:20:09.242Z,59.40
2019-03-25T17:22:30.681Z,59.90
2019-03-25T17:24:51.868Z,60.10
2019-03-25T17:27:13.213Z,60.60
2019-03-25T17:29:34.401Z,60.60
2019-03-25T17:31:55.591Z,60.90
2019-03-25T17:34:16.793Z,61.20
2019-03-25T17:36:39.391Z,61.70
2019-03-25T17:39:00.596Z,61.70
2019-03-25T17:41:21.819Z,62.20
2019-03-25T17:43:45.875Z,62.00
2019-03-25T17:46:17.957Z,60.60
2019-03-25T17:48:41.519Z,60.90
2019-03-25T17:51:03.830Z,61.70
2019-03-25T17:53:28.497Z,61.80
2019-03-25T17:55:50.076Z,62.10
2019-03-25T17:58:34.174Z,61.90
2019-03-25T18:01:32.069Z,61.60
2019-03-25T18:03:54.685Z,61.50
2019-03-25T18:06:15.871Z,61.00
2019-03-25T18:08:37.087Z,60.10
2019-03-25T18:10:58.272Z,60.40
2019-03-25T18:13:22.596Z,60.30
2019-03-25T18:15:44.567Z,61.20
2019-03-25T18:18:05.758Z,61.30
2019-03-25T18:20:26.951Z,61.00
2019-03-25T18:22:48.160Z,62.00
2019-03-25T18:25:09.376Z,61.70
2019-03-25T18:27:30.560Z,61.00
2019-03-25T18:29:51.773Z,58.70
2019-03-25T18:32:13.041Z,58.60
2019-03-25T18:34:34.483Z,58.90
2019-03-25T18:37:00.429Z,58.80
2019-03-25T18:39:21.625Z,59.10
2019-03-25T18:41:42.834Z,59.50
2019-03-25T18:44:04.248Z,60.70
2019-03-25T18:46:25.462Z,62.80
2019-03-25T18:48:46.861Z,66.60
2019-03-25T18:51:08.084Z,71.90
2019-03-25T18:53:29.320Z,74.60
2019-03-25T18:55:50.592Z,76.80
2019-03-25T18:58:11.792Z,79.30
2019-03-25T19:00:33.953Z,81.00
2019-03-25T19:02:55.123Z,82.50
2019-03-25T19:05:16.344Z,84.10
2019-03-25T19:07:39.768Z,84.30
2019-03-25T19:10:01.166Z,85.40
2019-03-25T19:12:22.390Z,86.40
2019-03-25T19:14:43.611Z,86.40
2019-03-25T19:17:05.487Z,87.20
2019-03-25T19:19:26.956Z,88.50
2019-03-25T19:21:48.163Z,89.80
2019-03-25T19:24:09.363Z,90.00
2019-03-25T19:26:30.634Z,90.10
2019-03-25T19:28:51.839Z,89.00
2019-03-25T19:31:13.147Z,89.80
2019-03-25T19:33:34.433Z,89.70
2019-03-25T19:35:55.659Z,89.60
2019-03-25T19:38:16.959Z,90.30
2019-03-25T19:40:39.162Z,90.40
2019-03-25T19:43:00.335Z,90.20
2019-03-25T19:45:21.626Z,90.40
2019-03-25T19:47:42.851Z,91.30
2019-03-25T19:50:08.040Z,91.30
2019-03-25T19:52:31.238Z,91.70
2019-03-25T19:54:52.454Z,91.80
2019-03-25T19:57:15.647Z,91.40
2019-03-25T19:59:37.030Z,90.60
2019-03-25T20:01:58.235Z,90.50
2019-03-25T20:04:19.540Z,90.80
2019-03-25T20:06:40.843Z,90.90
2019-03-25T20:09:05.804Z,91.00
2019-03-25T20:11:27.133Z,91.10
2019-03-25T20:13:49.582Z,91.10
2019-03-25T20:16:10.913Z,91.40
2019-03-25T20:18:32.133Z,91.70
2019-03-25T20:20:53.316Z,91.70
2019-03-25T20:23:14.582Z,91.60
2019-03-25T20:25:35.876Z,92.20
2019-03-25T20:28:17.043Z,92.60
2019-03-25T20:30:38.292Z,92.20
2019-03-25T20:32:59.504Z,92.40
2019-03-25T20:35:21.127Z,92.40
2019-03-25T20:37:42.507Z,92.80
2019-03-25T20:40:06.008Z,92.80
2019-03-25T20:42:27.222Z,92.80
2019-03-25T20:44:48.516Z,92.60
2019-03-25T20:47:09.858Z,92.30
2019-03-25T20:49:31.163Z,92.40
2019-03-25T20:51:52.707Z,92.50
2019-03-25T20:54:14.011Z,92.00
2019-03-25T20:56:35.274Z,92.30
2019-03-25T20:58:56.620Z,92.40
2019-03-25T21:01:18.162Z,92.30
2019-03-25T21:03:39.443Z,92.40
2019-03-25T21:06:00.691Z,92.40
2019-03-25T21:08:21.973Z,92.60
2019-03-25T21:10:43.410Z,92.40
2019-03-25T21:13:04.869Z,92.60
2019-03-25T21:15:26.084Z,92.70
2019-03-25T21:17:47.428Z,93.10
2019-03-25T21:20:09.272Z,92.90
2019-03-25T21:22:30.516Z,92.50
2019-03-25T21:24:51.735Z,92.50
2019-03-25T21:27:13.064Z,92.80
2019-03-25T21:29:34.380Z,92.80
2019-03-25T21:31:55.732Z,92.90
2019-03-25T21:34:17.015Z,92.50
2019-03-25T21:36:38.214Z,92.20
2019-03-25T21:38:59.405Z,92.30
2019-03-25T21:41:20.639Z,92.30
2019-03-25T21:43:42.003Z,92.60
2019-03-25T21:46:03.228Z,92.30
2019-03-25T21:48:24.610Z,92.20
2019-03-25T21:50:46.245Z,92.10
2019-03-25T21:53:07.480Z,92.30
2019-03-25T21:55:28.818Z,92.20
2019-03-25T21:57:50.111Z,92.30
2019-03-25T22:00:12.109Z,92.30
2019-03-25T22:02:33.621Z,92.40
2019-03-25T22:04:57.171Z,92.20
2019-03-25T22:07:18.095Z,92.40
2019-03-25T22:09:39.304Z,91.70
2019-03-25T22:12:00.479Z,91.90
2019-03-25T22:14:21.677Z,92.00
2019-03-25T22:16:43.035Z,91.70
2019-03-25T22:19:04.258Z,91.80
2019-03-25T22:21:25.438Z,92.20
2019-03-25T22:23:46.627Z,92.10
2019-03-25T22:26:07.832Z,92.70
2019-03-25T22:28:29.124Z,92.90
2019-03-25T22:30:50.312Z,92.70
2019-03-25T22:33:24.856Z,92.90
2019-03-25T22:35:34.619Z,92.70
2019-03-25T22:37:55.816Z,92.90
2019-03-25T22:40:17.005Z,92.80
2019-03-25T22:42:38.232Z,93.10
2019-03-25T22:44:59.434Z,93.30
2019-03-25T22:47:20.612Z,93.40
2019-03-25T22:49:41.829Z,93.50
2019-03-25T22:52:03.097Z,92.20
2019-03-25T22:54:24.378Z,92.40
2019-03-25T22:56:45.560Z,92.10
2019-03-25T22:59:06.755Z,92.40
2019-03-25T23:01:27.941Z,92.40
2019-03-25T23:03:50.279Z,92.40
2019-03-25T23:06:11.572Z,92.30
2019-03-25T23:08:32.886Z,92.50
2019-03-25T23:10:54.068Z,92.70
2019-03-25T23:13:15.297Z,92.70
2019-03-25T23:15:36.541Z,92.70
2019-03-25T23:17:57.732Z,92.60
2019-03-25T23:20:19.143Z,92.50
2019-03-25T23:22:40.325Z,92.60
2019-03-25T23:25:01.554Z,92.50
2019-03-25T23:27:23.928Z,92.60
2019-03-25T23:29:45.135Z,92.50
2019-03-25T23:32:06.589Z,92.60
2019-03-25T23:34:27.787Z,92.70
2019-03-25T23:36:49.070Z,92.70
2019-03-25T23:39:10.263Z,93.00
2019-03-25T23:41:31.461Z,93.20
2019-03-25T23:43:52.667Z,93.60
2019-03-25T23:46:14.187Z,93.40
2019-03-25T23:48:35.472Z,93.60
2019-03-25T23:50:56.660Z,93.50
2019-03-25T23:53:17.864Z,93.90
2019-03-25T23:55:39.082Z,93.90
2019-03-25T23:58:00.257Z,94.30
